KNTU/NTU METAR and TAF weather

Enter ICAO airport designator
Station Type Date Time Source
KNTU METAR 2019/02/20 22:56 UTC NOAA

KNTU 202256Z 12008KT 1SM BR OVC003 09/09 A3017 RMK AO2 RAE55 SLP219 P0002 T00940094


Station Type Date Time Source
KNTU Decoded METAR 2019/02/20 22:56 UTC NOAA

OCEANA, NAVAL AIR STATION, VA, United States (KNTU) 36-49N 076-02W 6M
Feb 20, 2019 - 05:56 PM EST / 2019.02.20 2256 UTC
Wind: from the ESE (120 degrees) at 9 MPH (8 KT):0
Visibility: 1 mile(s):0
Sky conditions: overcast
Weather: mist
Precipitation last hour: 0.02 inches
Temperature: 48.9 F (9.4 C)
Dew Point: 48.9 F (9.4 C)
Relative Humidity: 100%
Pressure (altimeter): 30.17 in. Hg (1021 hPa)
ob: KNTU 202256Z 12008KT 1SM BR OVC003 09/09 A3017 RMK AO2 RAE55 SLP219 P0002 T00940094
cycle: 23

Station Type Date Time Source
KNTU TAF 2019/02/20 23:49 UTC NOAA

TAF KNTU 2023/2123 15008KT 3200 BR OVC005 WS02040KT 540007 QNH3004INS
TEMPO 2023/2105 0800 RA FG OVC003
FM210500 26008KT 1600 RA BR OVC003 WS020/24050KT 540007 QNH2998INS
FM211500 27006KT 3200 -RA BR FEW003 BKN015 OVC050 500000 QNH3006INS T13/2105Z T08/2110Z FN20051


Example: see airport list